sensor_id;sensor_type;location;lat;lon;timestamp;temperature;humidity
32706;DHT22;19094;50.972;3.538;2023-02-12T00:02:06;12.40;69.80
32706;DHT22;19094;50.972;3.538;2023-02-12T00:04:32;12.40;69.80
32706;DHT22;19094;50.972;3.538;2023-02-12T00:06:58;12.40;69.70
32706;DHT22;19094;50.972;3.538;2023-02-12T00:09:24;12.40;69.90
32706;DHT22;19094;50.972;3.538;2023-02-12T00:11:50;12.40;69.60
32706;DHT22;19094;50.972;3.538;2023-02-12T00:14:16;12.40;69.60
32706;DHT22;19094;50.972;3.538;2023-02-12T00:16:42;12.40;69.60
32706;DHT22;19094;50.972;3.538;2023-02-12T00:19:08;12.40;69.60
32706;DHT22;19094;50.972;3.538;2023-02-12T00:21:34;12.40;69.50
32706;DHT22;19094;50.972;3.538;2023-02-12T00:24:00;12.40;69.50
32706;DHT22;19094;50.972;3.538;2023-02-12T00:26:26;12.40;69.50
32706;DHT22;19094;50.972;3.538;2023-02-12T00:28:53;12.40;69.50
32706;DHT22;19094;50.972;3.538;2023-02-12T00:31:24;12.40;69.60
32706;DHT22;19094;50.972;3.538;2023-02-12T00:33:50;12.40;69.60
32706;DHT22;19094;50.972;3.538;2023-02-12T00:36:19;12.30;69.50
32706;DHT22;19094;50.972;3.538;2023-02-12T00:38:45;12.30;69.40
32706;DHT22;19094;50.972;3.538;2023-02-12T00:41:12;12.30;69.40
32706;DHT22;19094;50.972;3.538;2023-02-12T00:43:38;12.30;69.50
32706;DHT22;19094;50.972;3.538;2023-02-12T00:46:04;12.40;69.30
32706;DHT22;19094;50.972;3.538;2023-02-12T00:48:32;12.30;69.20
32706;DHT22;19094;50.972;3.538;2023-02-12T00:50:57;12.30;69.30
32706;DHT22;19094;50.972;3.538;2023-02-12T00:53:23;12.30;69.40
32706;DHT22;19094;50.972;3.538;2023-02-12T00:55:49;12.40;69.30
32706;DHT22;19094;50.972;3.538;2023-02-12T00:58:15;12.30;69.20
32706;DHT22;19094;50.972;3.538;2023-02-12T01:00:42;12.30;69.20
32706;DHT22;19094;50.972;3.538;2023-02-12T01:03:08;12.30;69.20
32706;DHT22;19094;50.972;3.538;2023-02-12T01:05:34;12.40;69.00
32706;DHT22;19094;50.972;3.538;2023-02-12T01:08:00;12.40;68.90
32706;DHT22;19094;50.972;3.538;2023-02-12T01:10:26;12.40;68.80
32706;DHT22;19094;50.972;3.538;2023-02-12T01:12:52;12.30;68.80
32706;DHT22;19094;50.972;3.538;2023-02-12T01:15:18;12.40;68.80
32706;DHT22;19094;50.972;3.538;2023-02-12T01:17:44;12.30;68.70
32706;DHT22;19094;50.972;3.538;2023-02-12T01:20:12;12.30;68.80
32706;DHT22;19094;50.972;3.538;2023-02-12T01:22:42;12.30;68.70
32706;DHT22;19094;50.972;3.538;2023-02-12T01:25:08;12.30;68.70
32706;DHT22;19094;50.972;3.538;2023-02-12T01:27:34;12.30;68.70
32706;DHT22;19094;50.972;3.538;2023-02-12T01:30:00;12.30;68.60
32706;DHT22;19094;50.972;3.538;2023-02-12T01:32:26;12.30;68.30
32706;DHT22;19094;50.972;3.538;2023-02-12T01:34:52;12.30;68.30
32706;DHT22;19094;50.972;3.538;2023-02-12T01:37:17;12.30;68.20
32706;DHT22;19094;50.972;3.538;2023-02-12T01:39:43;12.30;68.20
32706;DHT22;19094;50.972;3.538;2023-02-12T01:42:14;12.30;68.00
32706;DHT22;19094;50.972;3.538;2023-02-12T01:47:29;12.30;68.00
32706;DHT22;19094;50.972;3.538;2023-02-12T01:49:55;12.30;68.20
32706;DHT22;19094;50.972;3.538;2023-02-12T01:52:42;12.30;68.00
32706;DHT22;19094;50.972;3.538;2023-02-12T01:55:09;12.40;67.80
32706;DHT22;19094;50.972;3.538;2023-02-12T01:57:38;12.30;67.80
32706;DHT22;19094;50.972;3.538;2023-02-12T02:00:17;12.30;67.70
32706;DHT22;19094;50.972;3.538;2023-02-12T02:02:47;12.30;67.80
32706;DHT22;19094;50.972;3.538;2023-02-12T02:05:20;12.30;67.90
32706;DHT22;19094;50.972;3.538;2023-02-12T02:07:48;12.30;67.90
32706;DHT22;19094;50.972;3.538;2023-02-12T02:10:13;12.30;68.00
32706;DHT22;19094;50.972;3.538;2023-02-12T02:12:39;12.30;67.90
32706;DHT22;19094;50.972;3.538;2023-02-12T02:15:25;12.30;67.70
32706;DHT22;19094;50.972;3.538;2023-02-12T02:18:07;12.30;67.70
32706;DHT22;19094;50.972;3.538;2023-02-12T02:31:46;12.20;67.70
32706;DHT22;19094;50.972;3.538;2023-02-12T02:34:33;12.20;67.60
32706;DHT22;19094;50.972;3.538;2023-02-12T02:37:27;12.20;67.60
32706;DHT22;19094;50.972;3.538;2023-02-12T02:40:12;12.20;67.80
32706;DHT22;19094;50.972;3.538;2023-02-12T02:42:45;12.20;67.70
32706;DHT22;19094;50.972;3.538;2023-02-12T02:48:23;12.20;67.80
32706;DHT22;19094;50.972;3.538;2023-02-12T02:51:00;12.20;67.50
32706;DHT22;19094;50.972;3.538;2023-02-12T02:53:31;12.30;67.40
32706;DHT22;19094;50.972;3.538;2023-02-12T02:56:00;12.20;67.40
32706;DHT22;19094;50.972;3.538;2023-02-12T02:58:37;12.20;67.60
32706;DHT22;19094;50.972;3.538;2023-02-12T03:01:08;12.20;67.70
32706;DHT22;19094;50.972;3.538;2023-02-12T03:03:44;12.10;67.80
32706;DHT22;19094;50.972;3.538;2023-02-12T03:06:27;12.20;67.70
32706;DHT22;19094;50.972;3.538;2023-02-12T03:08:57;12.20;67.60
32706;DHT22;19094;50.972;3.538;2023-02-12T03:11:29;12.30;67.30
32706;DHT22;19094;50.972;3.538;2023-02-12T03:14:21;12.30;67.10
32706;DHT22;19094;50.972;3.538;2023-02-12T03:17:27;12.30;67.20
32706;DHT22;19094;50.972;3.538;2023-02-12T03:20:10;12.30;67.00
32706;DHT22;19094;50.972;3.538;2023-02-12T03:22:39;12.20;67.10
32706;DHT22;19094;50.972;3.538;2023-02-12T03:25:15;12.20;67.10
32706;DHT22;19094;50.972;3.538;2023-02-12T03:27:59;12.20;67.00
32706;DHT22;19094;50.972;3.538;2023-02-12T03:30:35;12.20;67.10
32706;DHT22;19094;50.972;3.538;2023-02-12T03:33:21;12.20;67.00
32706;DHT22;19094;50.972;3.538;2023-02-12T03:36:06;12.20;66.80
32706;DHT22;19094;50.972;3.538;2023-02-12T03:41:21;12.20;66.80
32706;DHT22;19094;50.972;3.538;2023-02-12T03:44:04;12.20;66.80
32706;DHT22;19094;50.972;3.538;2023-02-12T03:46:54;12.20;66.90
32706;DHT22;19094;50.972;3.538;2023-02-12T03:49:26;12.20;66.80
32706;DHT22;19094;50.972;3.538;2023-02-12T03:51:53;12.10;66.80
32706;DHT22;19094;50.972;3.538;2023-02-12T03:54:20;12.10;66.70
32706;DHT22;19094;50.972;3.538;2023-02-12T03:56:48;12.10;66.70
32706;DHT22;19094;50.972;3.538;2023-02-12T03:59:18;12.10;66.80
32706;DHT22;19094;50.972;3.538;2023-02-12T04:01:44;12.20;66.90
32706;DHT22;19094;50.972;3.538;2023-02-12T04:04:11;12.20;66.60
32706;DHT22;19094;50.972;3.538;2023-02-12T04:06:37;12.20;66.50
32706;DHT22;19094;50.972;3.538;2023-02-12T04:09:08;12.20;66.70
32706;DHT22;19094;50.972;3.538;2023-02-12T04:12:20;12.20;66.50
32706;DHT22;19094;50.972;3.538;2023-02-12T04:15:08;12.20;66.40
32706;DHT22;19094;50.972;3.538;2023-02-12T04:18:00;12.20;66.10
32706;DHT22;19094;50.972;3.538;2023-02-12T04:21:19;12.10;66.60
32706;DHT22;19094;50.972;3.538;2023-02-12T04:29:10;12.10;66.50
32706;DHT22;19094;50.972;3.538;2023-02-12T04:31:45;12.10;66.40
32706;DHT22;19094;50.972;3.538;2023-02-12T04:34:37;12.20;66.50
32706;DHT22;19094;50.972;3.538;2023-02-12T04:39:37;12.10;66.00
32706;DHT22;19094;50.972;3.538;2023-02-12T04:42:04;12.10;66.50
32706;DHT22;19094;50.972;3.538;2023-02-12T04:44:32;12.20;66.30
32706;DHT22;19094;50.972;3.538;2023-02-12T04:46:59;12.20;66.20
32706;DHT22;19094;50.972;3.538;2023-02-12T04:49:25;12.10;66.20
32706;DHT22;19094;50.972;3.538;2023-02-12T04:51:52;12.20;66.20
32706;DHT22;19094;50.972;3.538;2023-02-12T04:54:19;12.20;65.80
32706;DHT22;19094;50.972;3.538;2023-02-12T04:56:45;12.20;66.00
32706;DHT22;19094;50.972;3.538;2023-02-12T04:59:11;12.20;65.80
32706;DHT22;19094;50.972;3.538;2023-02-12T05:01:38;12.20;66.10
32706;DHT22;19094;50.972;3.538;2023-02-12T05:04:05;12.20;66.10
32706;DHT22;19094;50.972;3.538;2023-02-12T05:06:33;12.20;65.70
32706;DHT22;19094;50.972;3.538;2023-02-12T05:08:59;12.20;66.00
32706;DHT22;19094;50.972;3.538;2023-02-12T05:11:25;12.20;66.00
32706;DHT22;19094;50.972;3.538;2023-02-12T05:13:51;12.20;65.70
32706;DHT22;19094;50.972;3.538;2023-02-12T05:16:18;12.10;65.90
32706;DHT22;19094;50.972;3.538;2023-02-12T05:18:44;12.10;66.10
32706;DHT22;19094;50.972;3.538;2023-02-12T05:21:10;12.10;66.00
32706;DHT22;19094;50.972;3.538;2023-02-12T05:23:37;12.10;66.10
32706;DHT22;19094;50.972;3.538;2023-02-12T05:26:10;12.10;66.00
32706;DHT22;19094;50.972;3.538;2023-02-12T05:28:36;12.10;66.00
32706;DHT22;19094;50.972;3.538;2023-02-12T05:31:04;12.10;65.80
32706;DHT22;19094;50.972;3.538;2023-02-12T05:33:30;12.10;66.00
32706;DHT22;19094;50.972;3.538;2023-02-12T05:36:05;12.10;65.70
32706;DHT22;19094;50.972;3.538;2023-02-12T05:38:31;12.10;65.90
32706;DHT22;19094;50.972;3.538;2023-02-12T05:41:04;12.10;65.70
32706;DHT22;19094;50.972;3.538;2023-02-12T05:43:31;12.10;65.50
32706;DHT22;19094;50.972;3.538;2023-02-12T05:46:01;12.10;65.70
32706;DHT22;19094;50.972;3.538;2023-02-12T05:48:27;12.10;65.70
32706;DHT22;19094;50.972;3.538;2023-02-12T05:50:53;12.10;65.60
32706;DHT22;19094;50.972;3.538;2023-02-12T05:53:20;12.20;65.50
32706;DHT22;19094;50.972;3.538;2023-02-12T05:55:45;12.20;65.10
32706;DHT22;19094;50.972;3.538;2023-02-12T05:58:11;12.20;65.00
32706;DHT22;19094;50.972;3.538;2023-02-12T06:00:37;12.10;64.90
32706;DHT22;19094;50.972;3.538;2023-02-12T06:03:02;12.20;65.00
32706;DHT22;19094;50.972;3.538;2023-02-12T06:05:28;12.10;65.10
32706;DHT22;19094;50.972;3.538;2023-02-12T06:07:54;12.10;65.20
32706;DHT22;19094;50.972;3.538;2023-02-12T06:10:19;12.20;65.10
32706;DHT22;19094;50.972;3.538;2023-02-12T06:12:45;12.10;65.00
32706;DHT22;19094;50.972;3.538;2023-02-12T06:15:11;12.10;64.90
32706;DHT22;19094;50.972;3.538;2023-02-12T06:17:36;12.10;65.00
32706;DHT22;19094;50.972;3.538;2023-02-12T06:20:03;12.10;65.30
32706;DHT22;19094;50.972;3.538;2023-02-12T06:22:29;12.10;65.30
32706;DHT22;19094;50.972;3.538;2023-02-12T06:24:54;12.10;65.10
32706;DHT22;19094;50.972;3.538;2023-02-12T06:27:20;12.10;65.20
32706;DHT22;19094;50.972;3.538;2023-02-12T06:29:46;12.10;65.00
32706;DHT22;19094;50.972;3.538;2023-02-12T06:32:11;12.10;64.70
32706;DHT22;19094;50.972;3.538;2023-02-12T06:34:39;12.20;64.80
32706;DHT22;19094;50.972;3.538;2023-02-12T06:37:04;12.20;64.80
32706;DHT22;19094;50.972;3.538;2023-02-12T06:39:30;12.10;64.70
32706;DHT22;19094;50.972;3.538;2023-02-12T06:41:56;12.10;64.80
32706;DHT22;19094;50.972;3.538;2023-02-12T06:44:22;12.10;64.90
32706;DHT22;19094;50.972;3.538;2023-02-12T06:46:48;12.10;64.70
32706;DHT22;19094;50.972;3.538;2023-02-12T06:49:13;12.20;64.70
32706;DHT22;19094;50.972;3.538;2023-02-12T06:51:40;12.10;64.70
32706;DHT22;19094;50.972;3.538;2023-02-12T06:54:12;12.20;64.60
32706;DHT22;19094;50.972;3.538;2023-02-12T06:56:38;12.10;64.20
32706;DHT22;19094;50.972;3.538;2023-02-12T06:59:04;12.10;64.40
32706;DHT22;19094;50.972;3.538;2023-02-12T07:01:30;12.10;64.40
32706;DHT22;19094;50.972;3.538;2023-02-12T07:03:58;12.10;64.60
32706;DHT22;19094;50.972;3.538;2023-02-12T07:06:26;12.10;64.80
32706;DHT22;19094;50.972;3.538;2023-02-12T07:08:53;12.10;64.60
32706;DHT22;19094;50.972;3.538;2023-02-12T07:11:23;12.10;64.70
32706;DHT22;19094;50.972;3.538;2023-02-12T07:13:49;12.10;64.60
32706;DHT22;19094;50.972;3.538;2023-02-12T07:16:15;12.10;64.50
32706;DHT22;19094;50.972;3.538;2023-02-12T07:18:42;12.10;64.50
32706;DHT22;19094;50.972;3.538;2023-02-12T07:21:09;12.20;64.50
32706;DHT22;19094;50.972;3.538;2023-02-12T07:23:35;12.20;64.50
32706;DHT22;19094;50.972;3.538;2023-02-12T07:26:04;12.10;64.60
32706;DHT22;19094;50.972;3.538;2023-02-12T07:28:30;12.10;64.60
32706;DHT22;19094;50.972;3.538;2023-02-12T07:30:58;12.10;64.50
32706;DHT22;19094;50.972;3.538;2023-02-12T07:33:24;12.10;64.60
32706;DHT22;19094;50.972;3.538;2023-02-12T07:35:50;12.10;64.60
32706;DHT22;19094;50.972;3.538;2023-02-12T07:38:16;12.10;64.30
32706;DHT22;19094;50.972;3.538;2023-02-12T07:40:42;12.20;64.80
32706;DHT22;19094;50.972;3.538;2023-02-12T07:43:08;12.10;64.40
32706;DHT22;19094;50.972;3.538;2023-02-12T07:45:34;12.10;64.40
32706;DHT22;19094;50.972;3.538;2023-02-12T07:47:59;12.10;64.20
32706;DHT22;19094;50.972;3.538;2023-02-12T07:50:25;12.10;64.40
32706;DHT22;19094;50.972;3.538;2023-02-12T07:52:51;12.10;64.30
32706;DHT22;19094;50.972;3.538;2023-02-12T07:55:16;12.10;64.80
32706;DHT22;19094;50.972;3.538;2023-02-12T07:57:42;12.10;65.10
32706;DHT22;19094;50.972;3.538;2023-02-12T08:00:09;12.20;64.50
32706;DHT22;19094;50.972;3.538;2023-02-12T08:02:34;12.10;64.50
32706;DHT22;19094;50.972;3.538;2023-02-12T08:05:00;12.10;64.60
32706;DHT22;19094;50.972;3.538;2023-02-12T08:07:26;12.00;64.60
32706;DHT22;19094;50.972;3.538;2023-02-12T08:09:51;12.00;64.70
32706;DHT22;19094;50.972;3.538;2023-02-12T08:12:17;12.00;64.70
32706;DHT22;19094;50.972;3.538;2023-02-12T08:14:43;12.00;64.70
32706;DHT22;19094;50.972;3.538;2023-02-12T08:17:09;12.10;64.70
32706;DHT22;19094;50.972;3.538;2023-02-12T08:19:35;12.10;64.60
32706;DHT22;19094;50.972;3.538;2023-02-12T08:22:01;12.10;64.70
32706;DHT22;19094;50.972;3.538;2023-02-12T08:24:28;12.10;64.70
32706;DHT22;19094;50.972;3.538;2023-02-12T08:26:54;12.10;64.90
32706;DHT22;19094;50.972;3.538;2023-02-12T08:29:26;12.00;64.80
32706;DHT22;19094;50.972;3.538;2023-02-12T08:31:59;12.10;64.80
32706;DHT22;19094;50.972;3.538;2023-02-12T08:34:31;12.10;64.90
32706;DHT22;19094;50.972;3.538;2023-02-12T08:36:58;12.10;64.50
32706;DHT22;19094;50.972;3.538;2023-02-12T08:39:26;12.10;64.70
32706;DHT22;19094;50.972;3.538;2023-02-12T08:41:56;12.10;64.50
32706;DHT22;19094;50.972;3.538;2023-02-12T08:44:22;12.10;64.50
32706;DHT22;19094;50.972;3.538;2023-02-12T08:46:49;12.10;64.50
32706;DHT22;19094;50.972;3.538;2023-02-12T08:49:18;12.10;64.50
32706;DHT22;19094;50.972;3.538;2023-02-12T08:51:47;12.10;64.40
32706;DHT22;19094;50.972;3.538;2023-02-12T08:54:16;12.10;64.80
32706;DHT22;19094;50.972;3.538;2023-02-12T08:56:42;12.10;64.60
32706;DHT22;19094;50.972;3.538;2023-02-12T08:59:10;12.30;65.90
32706;DHT22;19094;50.972;3.538;2023-02-12T09:01:36;12.30;64.90
32706;DHT22;19094;50.972;3.538;2023-02-12T09:04:20;12.40;67.10
32706;DHT22;19094;50.972;3.538;2023-02-12T09:06:47;12.50;67.30
32706;DHT22;19094;50.972;3.538;2023-02-12T09:09:13;12.60;67.00
32706;DHT22;19094;50.972;3.538;2023-02-12T09:11:39;12.70;67.10
32706;DHT22;19094;50.972;3.538;2023-02-12T09:14:07;12.70;67.10
32706;DHT22;19094;50.972;3.538;2023-02-12T09:16:35;12.70;67.60
32706;DHT22;19094;50.972;3.538;2023-02-12T09:19:01;12.70;67.50
32706;DHT22;19094;50.972;3.538;2023-02-12T09:21:27;12.70;67.30
32706;DHT22;19094;50.972;3.538;2023-02-12T09:23:53;12.70;67.60
32706;DHT22;19094;50.972;3.538;2023-02-12T09:26:21;12.80;67.80
32706;DHT22;19094;50.972;3.538;2023-02-12T09:28:48;12.90;68.30
32706;DHT22;19094;50.972;3.538;2023-02-12T09:31:18;12.90;68.10
32706;DHT22;19094;50.972;3.538;2023-02-12T09:33:45;12.90;67.60
32706;DHT22;19094;50.972;3.538;2023-02-12T09:36:13;12.90;67.70
32706;DHT22;19094;50.972;3.538;2023-02-12T09:38:40;12.90;67.50
32706;DHT22;19094;50.972;3.538;2023-02-12T09:41:31;12.90;68.60
32706;DHT22;19094;50.972;3.538;2023-02-12T09:44:51;13.10;67.30
32706;DHT22;19094;50.972;3.538;2023-02-12T09:47:26;13.10;67.70
32706;DHT22;19094;50.972;3.538;2023-02-12T09:52:38;13.20;66.60
32706;DHT22;19094;50.972;3.538;2023-02-12T09:55:05;13.20;67.00
32706;DHT22;19094;50.972;3.538;2023-02-12T09:57:33;13.20;66.90
32706;DHT22;19094;50.972;3.538;2023-02-12T10:00:06;13.20;67.40
32706;DHT22;19094;50.972;3.538;2023-02-12T10:02:35;13.40;69.40
32706;DHT22;19094;50.972;3.538;2023-02-12T10:05:02;13.30;68.70
32706;DHT22;19094;50.972;3.538;2023-02-12T10:13:07;13.30;65.10
32706;DHT22;19094;50.972;3.538;2023-02-12T10:15:48;13.10;63.10
32706;DHT22;19094;50.972;3.538;2023-02-12T10:23:56;13.00;59.90
32706;DHT22;19094;50.972;3.538;2023-02-12T10:26:48;12.90;60.10
32706;DHT22;19094;50.972;3.538;2023-02-12T10:29:31;13.00;60.50
32706;DHT22;19094;50.972;3.538;2023-02-12T10:32:44;12.90;59.90
32706;DHT22;19094;50.972;3.538;2023-02-12T10:35:15;12.90;59.90
32706;DHT22;19094;50.972;3.538;2023-02-12T10:40:27;13.10;64.40
32706;DHT22;19094;50.972;3.538;2023-02-12T10:42:55;13.10;64.80
32706;DHT22;19094;50.972;3.538;2023-02-12T10:45:39;13.30;65.10
32706;DHT22;19094;50.972;3.538;2023-02-12T10:48:16;13.30;64.40
32706;DHT22;19094;50.972;3.538;2023-02-12T10:53:25;13.20;64.40
32706;DHT22;19094;50.972;3.538;2023-02-12T10:58:58;13.20;64.00
32706;DHT22;19094;50.972;3.538;2023-02-12T11:03:55;13.10;63.10
32706;DHT22;19094;50.972;3.538;2023-02-12T11:06:25;13.10;64.00
32706;DHT22;19094;50.972;3.538;2023-02-12T11:08:51;13.10;64.60
32706;DHT22;19094;50.972;3.538;2023-02-12T11:11:23;13.20;64.60
32706;DHT22;19094;50.972;3.538;2023-02-12T11:13:57;13.20;65.10
32706;DHT22;19094;50.972;3.538;2023-02-12T11:16:29;13.20;64.90
32706;DHT22;19094;50.972;3.538;2023-02-12T11:19:06;13.20;65.60
32706;DHT22;19094;50.972;3.538;2023-02-12T11:21:34;13.30;65.60
32706;DHT22;19094;50.972;3.538;2023-02-12T11:26:50;13.30;66.90
32706;DHT22;19094;50.972;3.538;2023-02-12T11:29:21;13.30;65.50
32706;DHT22;19094;50.972;3.538;2023-02-12T11:32:01;13.30;66.00
32706;DHT22;19094;50.972;3.538;2023-02-12T11:34:28;13.20;65.40
32706;DHT22;19094;50.972;3.538;2023-02-12T11:36:55;13.10;64.00
32706;DHT22;19094;50.972;3.538;2023-02-12T11:39:30;13.10;63.70
32706;DHT22;19094;50.972;3.538;2023-02-12T11:42:17;13.10;63.10
32706;DHT22;19094;50.972;3.538;2023-02-12T11:44:56;13.00;63.50
32706;DHT22;19094;50.972;3.538;2023-02-12T11:47:26;13.00;63.80
32706;DHT22;19094;50.972;3.538;2023-02-12T11:52:36;13.00;63.50
32706;DHT22;19094;50.972;3.538;2023-02-12T11:55:07;12.90;63.40
32706;DHT22;19094;50.972;3.538;2023-02-12T11:57:46;12.90;63.60
32706;DHT22;19094;50.972;3.538;2023-02-12T12:03:00;13.00;63.70
32706;DHT22;19094;50.972;3.538;2023-02-12T12:05:35;13.00;63.70
32706;DHT22;19094;50.972;3.538;2023-02-12T12:08:06;13.10;64.40
32706;DHT22;19094;50.972;3.538;2023-02-12T12:13:37;13.20;64.10
32706;DHT22;19094;50.972;3.538;2023-02-12T12:16:12;13.20;64.00
32706;DHT22;19094;50.972;3.538;2023-02-12T12:19:03;13.20;64.10
32706;DHT22;19094;50.972;3.538;2023-02-12T12:22:17;13.30;65.90
32706;DHT22;19094;50.972;3.538;2023-02-12T12:24:56;13.50;65.80
32706;DHT22;19094;50.972;3.538;2023-02-12T12:28:27;13.50;65.80
32706;DHT22;19094;50.972;3.538;2023-02-12T12:41:23;13.50;65.50
32706;DHT22;19094;50.972;3.538;2023-02-12T12:49:27;13.50;64.30
32706;DHT22;19094;50.972;3.538;2023-02-12T12:52:07;13.40;62.80
32706;DHT22;19094;50.972;3.538;2023-02-12T12:59:59;13.20;61.70
32706;DHT22;19094;50.972;3.538;2023-02-12T13:10:56;13.10;62.00
32706;DHT22;19094;50.972;3.538;2023-02-12T13:13:52;13.10;62.20
32706;DHT22;19094;50.972;3.538;2023-02-12T13:16:29;13.10;61.90
32706;DHT22;19094;50.972;3.538;2023-02-12T13:18:58;13.10;61.90
32706;DHT22;19094;50.972;3.538;2023-02-12T13:22:01;13.10;62.00
32706;DHT22;19094;50.972;3.538;2023-02-12T13:24:54;13.10;61.90
32706;DHT22;19094;50.972;3.538;2023-02-12T13:27:25;13.10;61.90
32706;DHT22;19094;50.972;3.538;2023-02-12T13:33:01;13.00;61.90
32706;DHT22;19094;50.972;3.538;2023-02-12T13:35:30;13.10;61.80
32706;DHT22;19094;50.972;3.538;2023-02-12T13:37:58;13.10;61.70
32706;DHT22;19094;50.972;3.538;2023-02-12T13:40:29;13.10;61.70
32706;DHT22;19094;50.972;3.538;2023-02-12T13:45:58;13.10;60.90
32706;DHT22;19094;50.972;3.538;2023-02-12T13:54:09;13.10;61.30
32706;DHT22;19094;50.972;3.538;2023-02-12T14:05:22;13.30;63.30
32706;DHT22;19094;50.972;3.538;2023-02-12T14:08:00;13.20;62.40
32706;DHT22;19094;50.972;3.538;2023-02-12T14:10:37;13.20;61.90
32706;DHT22;19094;50.972;3.538;2023-02-12T14:13:22;13.20;61.50
32706;DHT22;19094;50.972;3.538;2023-02-12T14:15:54;13.10;61.50
32706;DHT22;19094;50.972;3.538;2023-02-12T14:18:35;13.20;61.50
32706;DHT22;19094;50.972;3.538;2023-02-12T14:23:36;13.10;61.50
32706;DHT22;19094;50.972;3.538;2023-02-12T14:26:09;13.10;61.60
32706;DHT22;19094;50.972;3.538;2023-02-12T14:31:20;13.10;61.50
32706;DHT22;19094;50.972;3.538;2023-02-12T14:33:49;13.00;61.30
32706;DHT22;19094;50.972;3.538;2023-02-12T14:39:01;13.10;61.60
32706;DHT22;19094;50.972;3.538;2023-02-12T14:46:56;13.10;61.30
32706;DHT22;19094;50.972;3.538;2023-02-12T14:49:37;13.10;61.40
32706;DHT22;19094;50.972;3.538;2023-02-12T14:52:16;13.10;61.50
32706;DHT22;19094;50.972;3.538;2023-02-12T14:54:46;13.00;61.50
32706;DHT22;19094;50.972;3.538;2023-02-12T14:59:54;13.00;61.50
32706;DHT22;19094;50.972;3.538;2023-02-12T15:02:31;13.00;61.40
32706;DHT22;19094;50.972;3.538;2023-02-12T15:05:17;13.00;61.50
32706;DHT22;19094;50.972;3.538;2023-02-12T15:07:58;13.00;61.50
32706;DHT22;19094;50.972;3.538;2023-02-12T15:10:31;13.00;61.50
32706;DHT22;19094;50.972;3.538;2023-02-12T15:13:12;13.10;61.80
32706;DHT22;19094;50.972;3.538;2023-02-12T15:15:50;13.10;62.00
32706;DHT22;19094;50.972;3.538;2023-02-12T15:18:23;13.10;61.80
32706;DHT22;19094;50.972;3.538;2023-02-12T15:21:15;13.10;62.20
32706;DHT22;19094;50.972;3.538;2023-02-12T15:23:45;13.20;62.70
32706;DHT22;19094;50.972;3.538;2023-02-12T15:26:20;13.10;61.80
32706;DHT22;19094;50.972;3.538;2023-02-12T15:28:51;13.10;61.50
32706;DHT22;19094;50.972;3.538;2023-02-12T15:31:26;13.00;61.50
32706;DHT22;19094;50.972;3.538;2023-02-12T15:33:55;13.00;61.50
32706;DHT22;19094;50.972;3.538;2023-02-12T15:36:27;13.00;61.50
32706;DHT22;19094;50.972;3.538;2023-02-12T15:39:04;13.00;61.50
32706;DHT22;19094;50.972;3.538;2023-02-12T15:43:57;13.00;61.80
32706;DHT22;19094;50.972;3.538;2023-02-12T15:46:23;12.90;61.60
32706;DHT22;19094;50.972;3.538;2023-02-12T15:48:48;12.90;61.60
32706;DHT22;19094;50.972;3.538;2023-02-12T15:53:56;12.90;61.60
32706;DHT22;19094;50.972;3.538;2023-02-12T15:56:23;13.00;61.80
32706;DHT22;19094;50.972;3.538;2023-02-12T15:58:58;12.90;61.80
32706;DHT22;19094;50.972;3.538;2023-02-12T16:01:25;12.90;61.80
32706;DHT22;19094;50.972;3.538;2023-02-12T16:03:54;12.90;61.60
32706;DHT22;19094;50.972;3.538;2023-02-12T16:06:22;12.90;61.70
32706;DHT22;19094;50.972;3.538;2023-02-12T16:09:02;12.90;61.90
32706;DHT22;19094;50.972;3.538;2023-02-12T16:11:29;13.00;61.70
32706;DHT22;19094;50.972;3.538;2023-02-12T16:14:06;13.00;61.60
32706;DHT22;19094;50.972;3.538;2023-02-12T16:16:47;13.00;61.60
32706;DHT22;19094;50.972;3.538;2023-02-12T16:19:29;13.00;61.60
32706;DHT22;19094;50.972;3.538;2023-02-12T16:22:06;13.00;61.70
32706;DHT22;19094;50.972;3.538;2023-02-12T16:24:38;13.00;61.70
32706;DHT22;19094;50.972;3.538;2023-02-12T16:27:20;12.90;61.70
32706;DHT22;19094;50.972;3.538;2023-02-12T16:29:51;12.80;61.50
32706;DHT22;19094;50.972;3.538;2023-02-12T16:42:58;12.80;61.80
32706;DHT22;19094;50.972;3.538;2023-02-12T16:47:59;12.90;63.80
32706;DHT22;19094;50.972;3.538;2023-02-12T16:50:29;13.20;65.50
32706;DHT22;19094;50.972;3.538;2023-02-12T16:52:59;13.30;66.30
32706;DHT22;19094;50.972;3.538;2023-02-12T16:55:25;13.40;66.70
32706;DHT22;19094;50.972;3.538;2023-02-12T16:57:51;13.40;66.60
32706;DHT22;19094;50.972;3.538;2023-02-12T17:00:17;13.40;65.40
32706;DHT22;19094;50.972;3.538;2023-02-12T17:02:43;13.40;65.40
32706;DHT22;19094;50.972;3.538;2023-02-12T17:05:13;13.30;65.10
32706;DHT22;19094;50.972;3.538;2023-02-12T17:07:41;13.30;65.50
32706;DHT22;19094;50.972;3.538;2023-02-12T17:10:12;13.20;64.80
32706;DHT22;19094;50.972;3.538;2023-02-12T17:12:49;13.20;64.80
32706;DHT22;19094;50.972;3.538;2023-02-12T17:15:23;13.20;64.40
32706;DHT22;19094;50.972;3.538;2023-02-12T17:17:51;13.10;64.40
32706;DHT22;19094;50.972;3.538;2023-02-12T17:20:17;13.10;64.40
32706;DHT22;19094;50.972;3.538;2023-02-12T17:22:48;13.10;64.30
32706;DHT22;19094;50.972;3.538;2023-02-12T17:25:15;13.10;64.40
32706;DHT22;19094;50.972;3.538;2023-02-12T17:27:41;13.10;64.40
32706;DHT22;19094;50.972;3.538;2023-02-12T17:30:07;13.10;64.00
32706;DHT22;19094;50.972;3.538;2023-02-12T17:32:33;13.00;63.90
32706;DHT22;19094;50.972;3.538;2023-02-12T17:34:59;13.00;64.20
32706;DHT22;19094;50.972;3.538;2023-02-12T17:37:24;13.00;64.20
32706;DHT22;19094;50.972;3.538;2023-02-12T17:39:50;13.00;64.00
32706;DHT22;19094;50.972;3.538;2023-02-12T17:42:16;13.10;64.60
32706;DHT22;19094;50.972;3.538;2023-02-12T17:44:42;13.00;64.30
32706;DHT22;19094;50.972;3.538;2023-02-12T17:47:08;13.00;64.10
32706;DHT22;19094;50.972;3.538;2023-02-12T17:49:34;13.00;64.30
32706;DHT22;19094;50.972;3.538;2023-02-12T17:52:00;13.00;64.00
32706;DHT22;19094;50.972;3.538;2023-02-12T17:54:26;13.00;64.00
32706;DHT22;19094;50.972;3.538;2023-02-12T17:56:52;13.00;64.00
32706;DHT22;19094;50.972;3.538;2023-02-12T17:59:18;13.00;64.20
32706;DHT22;19094;50.972;3.538;2023-02-12T18:01:43;13.00;63.70
32706;DHT22;19094;50.972;3.538;2023-02-12T18:04:10;13.00;64.00
32706;DHT22;19094;50.972;3.538;2023-02-12T18:06:36;13.00;63.70
32706;DHT22;19094;50.972;3.538;2023-02-12T18:09:02;13.00;63.90
32706;DHT22;19094;50.972;3.538;2023-02-12T18:11:28;13.00;63.90
32706;DHT22;19094;50.972;3.538;2023-02-12T18:13:56;13.10;63.80
32706;DHT22;19094;50.972;3.538;2023-02-12T18:16:23;13.00;63.20
32706;DHT22;19094;50.972;3.538;2023-02-12T18:18:49;13.00;63.30
32706;DHT22;19094;50.972;3.538;2023-02-12T18:21:15;13.00;63.50
32706;DHT22;19094;50.972;3.538;2023-02-12T18:23:41;13.00;63.50